Nyk Maria — 3FER3 — position and weather

sailwx.info

Track history (hours):
 
Tides and Currents Weather Stations Pressure Air Temp Water Temp Dewpoint Dewpoint Depression Visibility Wind Speed Wind Dir Waves Ship Positions

Nyk Maria

Last reported at 2017-Nov-09 08:23 UTC. Time now 2017-Nov-24 07:14 UTC.
Position N 32°21' W 117°32'.
Warning: this ship's position is 14 days out of date.

Length 210 m; draft 8 m.

Type: Cargo ship. MMSI: 354918000.

Date/timePositionNaut miles runAvg speedWind from/ knotsBaromVisibWave heightAir tempDewpointWater temp
2017-Nov-09 08:23N 32°21' W 117°32'615.5
2017-Nov-09 08:00N 32°27' W 117°34'715.1
2017-Nov-09 07:30N 32°33' W 117°37'815.5
2017-Nov-09 07:00N 32°40' W 117°42'815.7
2017-Nov-09 06:30N 32°47' W 117°47'815.7
2017-Nov-09 06:00N 32°53' W 117°52'816.0
2017-Nov-09 05:30N 33°01' W 117°56'816.1
2017-Nov-09 05:01N 33°08' W 117°59'816.2
2017-Nov-09 04:30N 33°15' W 118°04'1912.7
2017-Nov-09 03:01N 33°33' W 118°12'011.6
2017-Nov-09 02:59N 33°33' W 118°12'712.0
2017-Nov-09 02:25N 33°40' W 118°14'6 0.2
2017-Nov-08 00:37N 33°46' W 118°15'0 0.0
2017-Nov-08 00:13N 33°46' W 118°15'0 0.0
2017-Nov-07 23:49N 33°46' W 118°15'1 3.1
2017-Nov-07 23:23N 33°45' W 118°17'2 6.1
2017-Nov-07 23:00N 33°43' W 118°15'4 8.0
2017-Nov-07 22:29N 33°39' W 118°13'3 6.7
2017-Nov-07 22:00N 33°36' W 118°10'3 6.0
2017-Nov-07 21:27N 33°33' W 118°09'3 5.8
2017-Nov-07 21:00N 33°31' W 118°08'3 6.0
2017-Nov-07 20:30N 33°28' W 118°06'2 3.6
2017-Nov-07 19:56N 33°26' W 118°06'3 6.0
2017-Nov-07 19:29N 33°24' W 118°04'4 7.8
2017-Nov-07 19:00N 33°20' W 118°03'4 7.7
2017-Nov-07 18:30N 33°16' W 118°02'4 7.8
2017-Nov-07 18:00N 33°13' W 118°01'4 7.9
2017-Nov-07 17:30N 33°09' W 117°60'2 4.6
2017-Nov-07 17:00N 33°10' W 117°58'1 2.3
2017-Nov-07 16:30N 33°10' W 117°57'4 8.2
2017-Nov-07 16:00N 33°06' W 117°55'4 7.9
2017-Nov-07 15:30N 33°02' W 117°53'4 8.0
2017-Nov-07 15:00N 32°59' W 117°51'4 8.1
2017-Nov-07 14:30N 32°55' W 117°49'4 8.0
2017-Nov-07 14:00N 32°51' W 117°47'4 8.1
2017-Nov-07 13:30N 32°48' W 117°45'4 8.1
2017-Nov-07 13:00N 32°44' W 117°43'4 8.0
2017-Nov-07 12:30N 32°40' W 117°41'5 9.0
2017-Nov-07 12:00N 32°36' W 117°39'714.2
2017-Nov-07 11:30N 32°30' W 117°36'714.4
2017-Nov-07 11:00N 32°23' W 117°33'714.6
2017-Nov-07 10:30N 32°16' W 117°30'814.3
2017-Nov-07 09:57N 32°09' W 117°27'714.7
2017-Nov-07 09:28N 32°02' W 117°25'814.5
2017-Nov-07 08:55N 31°54' W 117°21'815.0
2017-Nov-07 08:23N 31°47' W 117°18'615.1
2017-Nov-07 08:00N 31°41' W 117°16'715.0
2017-Nov-07 07:30N 31°34' W 117°13'3115.3
2017-Nov-07 05:30N 31°06' W 117°01'1815.2
2017-Nov-07 04:19N 30°49' W 116°54'714.9
2017-Nov-07 03:50N 30°42' W 116°51'2617.1
2017-Nov-07 02:19N 30°18' W 116°41'5013.4
2017-Nov-06 22:34N 29°30' W 116°22'119.4
2017-Nov-06 22:30N 29°29' W 116°21'  
Track history (hours):
 
Tides and Currents Weather Stations Pressure Air Temp Water Temp Dewpoint Dewpoint Depression Visibility Wind Speed Wind Dir Waves Ship Positions

Nyk Maria

Last reported at 2017-Nov-09 08:23 UTC. Time now 2017-Nov-24 07:14 UTC.
Position N 32°21' W 117°32'.
Warning: this ship's position is 14 days out of date.

Length 210 m; draft 8 m.

Type: Cargo ship. MMSI: 354918000.

Date/timePositionNaut miles runAvg speedWind from/ knotsBaromVisibWave heightAir tempDewpointWater temp
2017-Nov-09 08:23N 32°21' W 117°32'615.5
2017-Nov-09 08:00N 32°27' W 117°34'715.1
2017-Nov-09 07:30N 32°33' W 117°37'815.5
2017-Nov-09 07:00N 32°40' W 117°42'815.7
2017-Nov-09 06:30N 32°47' W 117°47'815.7
2017-Nov-09 06:00N 32°53' W 117°52'816.0
2017-Nov-09 05:30N 33°01' W 117°56'816.1
2017-Nov-09 05:01N 33°08' W 117°59'816.2
2017-Nov-09 04:30N 33°15' W 118°04'1912.7
2017-Nov-09 03:01N 33°33' W 118°12'011.6
2017-Nov-09 02:59N 33°33' W 118°12'712.0
2017-Nov-09 02:25N 33°40' W 118°14'6 0.2
2017-Nov-08 00:37N 33°46' W 118°15'0 0.0
2017-Nov-08 00:13N 33°46' W 118°15'0 0.0
2017-Nov-07 23:49N 33°46' W 118°15'1 3.1
2017-Nov-07 23:23N 33°45' W 118°17'2 6.1
2017-Nov-07 23:00N 33°43' W 118°15'4 8.0
2017-Nov-07 22:29N 33°39' W 118°13'3 6.7
2017-Nov-07 22:00N 33°36' W 118°10'3 6.0
2017-Nov-07 21:27N 33°33' W 118°09'3 5.8
2017-Nov-07 21:00N 33°31' W 118°08'3 6.0
2017-Nov-07 20:30N 33°28' W 118°06'2 3.6
2017-Nov-07 19:56N 33°26' W 118°06'3 6.0
2017-Nov-07 19:29N 33°24' W 118°04'4 7.8
2017-Nov-07 19:00N 33°20' W 118°03'4 7.7
2017-Nov-07 18:30N 33°16' W 118°02'4 7.8
2017-Nov-07 18:00N 33°13' W 118°01'4 7.9
2017-Nov-07 17:30N 33°09' W 117°60'2 4.6
2017-Nov-07 17:00N 33°10' W 117°58'1 2.3
2017-Nov-07 16:30N 33°10' W 117°57'4 8.2
2017-Nov-07 16:00N 33°06' W 117°55'4 7.9
2017-Nov-07 15:30N 33°02' W 117°53'4 8.0
2017-Nov-07 15:00N 32°59' W 117°51'4 8.1
2017-Nov-07 14:30N 32°55' W 117°49'4 8.0
2017-Nov-07 14:00N 32°51' W 117°47'4 8.1
2017-Nov-07 13:30N 32°48' W 117°45'4 8.1
2017-Nov-07 13:00N 32°44' W 117°43'4 8.0
2017-Nov-07 12:30N 32°40' W 117°41'5 9.0
2017-Nov-07 12:00N 32°36' W 117°39'714.2
2017-Nov-07 11:30N 32°30' W 117°36'714.4
2017-Nov-07 11:00N 32°23' W 117°33'714.6
2017-Nov-07 10:30N 32°16' W 117°30'814.3
2017-Nov-07 09:57N 32°09' W 117°27'714.7
2017-Nov-07 09:28N 32°02' W 117°25'814.5
2017-Nov-07 08:55N 31°54' W 117°21'815.0
2017-Nov-07 08:23N 31°47' W 117°18'615.1
2017-Nov-07 08:00N 31°41' W 117°16'715.0
2017-Nov-07 07:30N 31°34' W 117°13'3115.3
2017-Nov-07 05:30N 31°06' W 117°01'1815.2
2017-Nov-07 04:19N 30°49' W 116°54'714.9
2017-Nov-07 03:50N 30°42' W 116°51'2617.1
2017-Nov-07 02:19N 30°18' W 116°41'5013.4
2017-Nov-06 22:34N 29°30' W 116°22'119.4
2017-Nov-06 22:30N 29°29' W 116°21'  

Dump ship's entire track history